createdAt,value
2018-08-19T00:02:19.226Z,99.90
2018-08-19T00:05:03.293Z,99.90
2018-08-19T00:07:31.765Z,99.90
2018-08-19T00:10:00.268Z,99.90
2018-08-19T00:12:37.569Z,99.90
2018-08-19T00:15:06.730Z,99.90
2018-08-19T00:17:35.220Z,99.90
2018-08-19T00:20:04.016Z,99.90
2018-08-19T00:22:32.516Z,99.90
2018-08-19T00:25:00.979Z,99.90
2018-08-19T00:27:29.580Z,99.90
2018-08-19T00:29:58.122Z,99.90
2018-08-19T00:32:26.605Z,99.90
2018-08-19T00:34:55.097Z,99.90
2018-08-19T00:37:23.613Z,99.90
2018-08-19T00:39:53.236Z,99.90
2018-08-19T00:42:21.765Z,99.90
2018-08-19T00:44:50.234Z,99.90
2018-08-19T00:47:18.697Z,99.90
2018-08-19T00:49:51.383Z,99.90
2018-08-19T00:52:19.854Z,99.90
2018-08-19T00:54:48.308Z,99.90
2018-08-19T00:57:16.741Z,99.90
2018-08-19T00:59:45.297Z,99.90
2018-08-19T01:02:13.785Z,99.90
2018-08-19T01:04:42.224Z,99.90
2018-08-19T01:07:10.661Z,99.90
2018-08-19T01:09:39.176Z,99.90
2018-08-19T01:12:07.901Z,99.90
2018-08-19T01:14:36.368Z,99.90
2018-08-19T01:17:04.890Z,99.90
2018-08-19T01:19:33.350Z,99.90
2018-08-19T01:22:01.880Z,99.90
2018-08-19T01:24:30.336Z,99.90
2018-08-19T01:26:58.797Z,99.90
2018-08-19T01:29:35.540Z,99.90
2018-08-19T01:32:09.831Z,99.90
2018-08-19T01:34:38.748Z,99.90
2018-08-19T01:37:07.291Z,99.90
2018-08-19T01:39:37.504Z,99.90
2018-08-19T01:42:07.200Z,99.90
2018-08-19T01:44:35.708Z,99.90
2018-08-19T01:47:04.293Z,99.90
2018-08-19T01:49:32.730Z,99.90
2018-08-19T01:52:01.256Z,99.90
2018-08-19T01:54:30.896Z,99.90
2018-08-19T01:57:00.613Z,99.90
2018-08-19T01:59:33.393Z,99.90
2018-08-19T02:02:04.028Z,99.90
2018-08-19T02:04:33.988Z,99.90
2018-08-19T02:07:02.567Z,99.90
2018-08-19T02:09:31.042Z,99.90
2018-08-19T02:12:00.591Z,99.90
2018-08-19T02:14:29.120Z,99.90
2018-08-19T02:16:57.985Z,99.90
2018-08-19T02:19:26.512Z,99.90
2018-08-19T02:21:54.941Z,99.90
2018-08-19T02:24:23.459Z,99.90
2018-08-19T02:26:52.023Z,99.90
2018-08-19T02:29:34.913Z,99.90
2018-08-19T02:32:04.726Z,99.90
2018-08-19T02:34:34.554Z,99.90
2018-08-19T02:37:05.969Z,99.90
2018-08-19T02:39:37.137Z,99.90
2018-08-19T02:42:11.101Z,99.90
2018-08-19T02:44:39.560Z,99.90
2018-08-19T02:47:08.053Z,99.90
2018-08-19T02:49:36.489Z,99.90
2018-08-19T02:52:05.908Z,99.90
2018-08-19T02:54:34.345Z,99.90
2018-08-19T02:57:02.845Z,99.90
2018-08-19T02:59:31.323Z,99.90
2018-08-19T03:01:59.927Z,99.90
2018-08-19T03:04:28.380Z,99.90
2018-08-19T03:06:56.825Z,99.90
2018-08-19T03:09:25.261Z,99.90
2018-08-19T03:12:05.033Z,99.90
2018-08-19T03:14:33.584Z,99.90
2018-08-19T03:17:02.088Z,99.90
2018-08-19T03:19:30.573Z,99.90
2018-08-19T03:22:01.360Z,99.90
2018-08-19T03:24:29.864Z,99.90
2018-08-19T03:27:00.677Z,99.90
2018-08-19T03:29:29.222Z,99.90
2018-08-19T03:32:00.272Z,99.90
2018-08-19T03:34:29.690Z,99.90
2018-08-19T03:36:59.330Z,99.90
2018-08-19T03:39:27.772Z,99.90
2018-08-19T03:41:56.224Z,99.90
2018-08-19T03:44:24.673Z,99.90
2018-08-19T03:46:53.103Z,99.90
2018-08-19T03:49:23.098Z,99.90
2018-08-19T03:51:51.577Z,99.90
2018-08-19T03:54:20.092Z,99.90
2018-08-19T03:56:48.593Z,99.90
2018-08-19T03:59:17.064Z,99.90
2018-08-19T04:01:46.357Z,99.90
2018-08-19T04:04:16.650Z,99.90
2018-08-19T04:06:45.108Z,99.90
2018-08-19T04:09:13.537Z,99.90
2018-08-19T04:11:42.000Z,99.90
2018-08-19T04:14:26.556Z,99.90
2018-08-19T04:16:57.189Z,99.90
2018-08-19T04:19:26.053Z,99.90
2018-08-19T04:21:57.797Z,99.90
2018-08-19T04:24:26.799Z,99.90
2018-08-19T04:26:55.496Z,99.90
2018-08-19T04:29:26.068Z,99.90
2018-08-19T04:31:54.931Z,99.90
2018-08-19T04:34:23.392Z,99.90
2018-08-19T04:36:51.816Z,99.90
2018-08-19T04:39:20.256Z,99.90
2018-08-19T04:41:48.692Z,99.90
2018-08-19T04:44:17.270Z,99.90
2018-08-19T04:46:45.719Z,99.90
2018-08-19T04:49:15.041Z,99.90
2018-08-19T04:51:43.488Z,99.90
2018-08-19T04:54:11.926Z,99.90
2018-08-19T04:56:40.427Z,99.90
2018-08-19T04:59:08.893Z,99.90
2018-08-19T05:01:37.385Z,99.90
2018-08-19T05:04:06.102Z,99.90
2018-08-19T05:06:34.561Z,99.90
2018-08-19T05:09:03.320Z,99.90
2018-08-19T05:11:31.796Z,99.90
2018-08-19T05:14:00.756Z,99.90
2018-08-19T05:16:29.207Z,99.90
2018-08-19T05:19:02.864Z,99.90
2018-08-19T05:21:31.355Z,99.90
2018-08-19T05:24:00.032Z,99.90
2018-08-19T05:26:28.721Z,99.90
2018-08-19T05:29:10.735Z,99.90
2018-08-19T05:31:44.653Z,99.90
2018-08-19T05:34:22.250Z,99.90
2018-08-19T05:36:51.240Z,99.90
2018-08-19T05:39:19.678Z,99.90
2018-08-19T05:42:01.720Z,99.90
2018-08-19T05:44:32.729Z,99.90
2018-08-19T05:47:06.613Z,99.90
2018-08-19T05:49:37.065Z,99.90
2018-08-19T05:52:22.292Z,99.90
2018-08-19T05:54:57.976Z,99.90
2018-08-19T05:57:28.426Z,99.90
2018-08-19T05:59:56.894Z,99.90
2018-08-19T06:02:32.364Z,99.90
2018-08-19T06:05:02.144Z,99.90
2018-08-19T06:07:30.782Z,99.90
2018-08-19T06:09:59.216Z,99.90
2018-08-19T06:12:27.712Z,99.90
2018-08-19T06:14:59.465Z,99.90
2018-08-19T06:17:27.907Z,99.90
2018-08-19T06:19:56.387Z,99.90
2018-08-19T06:22:30.201Z,99.90
2018-08-19T06:24:58.712Z,99.90
2018-08-19T06:27:32.343Z,99.90
2018-08-19T06:30:00.821Z,99.90
2018-08-19T06:32:31.894Z,99.90
2018-08-19T06:35:00.689Z,99.90
2018-08-19T06:37:29.123Z,99.90
2018-08-19T06:39:57.637Z,99.90
2018-08-19T06:42:26.105Z,99.90
2018-08-19T06:44:54.587Z,99.90
2018-08-19T06:47:23.085Z,99.90
2018-08-19T06:49:54.402Z,99.90
2018-08-19T06:52:24.557Z,99.90
2018-08-19T06:54:53.277Z,99.90
2018-08-19T06:57:21.881Z,99.90
2018-08-19T06:59:50.449Z,99.90
2018-08-19T07:02:21.674Z,99.90
2018-08-19T07:04:50.181Z,99.90
2018-08-19T07:07:19.497Z,99.90
2018-08-19T07:09:48.014Z,99.90
2018-08-19T07:12:19.844Z,99.90
2018-08-19T07:14:48.845Z,99.90
2018-08-19T07:17:18.563Z,99.90
2018-08-19T07:19:47.141Z,99.90
2018-08-19T07:22:18.311Z,99.90
2018-08-19T07:24:46.840Z,99.90
2018-08-19T07:27:15.358Z,99.90
2018-08-19T07:29:43.889Z,99.90
2018-08-19T07:32:13.089Z,99.90
2018-08-19T07:34:41.636Z,99.90
2018-08-19T07:37:10.225Z,99.90
2018-08-19T07:39:45.609Z,99.90
2018-08-19T07:42:14.309Z,99.90
2018-08-19T07:44:42.833Z,99.90
2018-08-19T07:47:11.383Z,99.90
2018-08-19T07:49:39.841Z,99.90
2018-08-19T07:52:08.346Z,99.90
2018-08-19T07:54:36.805Z,99.90
2018-08-19T07:57:11.941Z,99.90
2018-08-19T07:59:40.681Z,99.90
2018-08-19T08:02:09.238Z,99.90
2018-08-19T08:04:43.228Z,99.90
2018-08-19T08:07:12.825Z,99.90
2018-08-19T08:09:42.241Z,99.90
2018-08-19T08:12:12.236Z,99.80
2018-08-19T08:14:46.185Z,99.40
2018-08-19T08:17:14.765Z,99.70
2018-08-19T08:19:48.784Z,98.60
2018-08-19T08:22:17.965Z,98.60
2018-08-19T08:24:46.489Z,98.50
2018-08-19T08:27:15.120Z,98.40
2018-08-19T08:29:43.625Z,98.10
2018-08-19T08:32:12.245Z,97.80
2018-08-19T08:34:40.861Z,97.50
2018-08-19T08:37:10.278Z,97.90
2018-08-19T08:39:38.886Z,97.80
2018-08-19T08:42:07.802Z,97.60
2018-08-19T08:44:36.392Z,97.80
2018-08-19T08:47:08.428Z,97.90
2018-08-19T08:49:42.268Z,97.90
2018-08-19T08:52:24.423Z,97.00
2018-08-19T08:54:57.549Z,97.00
2018-08-19T08:57:26.433Z,96.50
2018-08-19T08:59:55.532Z,96.30
2018-08-19T09:02:24.727Z,96.40
2018-08-19T09:04:54.580Z,96.40
2018-08-19T09:07:23.072Z,96.70
2018-08-19T09:09:51.959Z,96.30
2018-08-19T09:12:31.831Z,96.20
2018-08-19T09:15:00.508Z,95.60
2018-08-19T09:17:29.236Z,95.20
2018-08-19T09:19:58.033Z,94.90
2018-08-19T09:22:26.718Z,95.10
2018-08-19T09:24:55.453Z,95.00
2018-08-19T09:27:24.081Z,94.90
2018-08-19T09:29:52.612Z,94.30
2018-08-19T09:32:21.360Z,94.80
2018-08-19T09:34:49.864Z,95.10
2018-08-19T09:37:18.587Z,95.20
2018-08-19T09:39:47.191Z,95.30
2018-08-19T09:42:15.796Z,95.00
2018-08-19T09:44:44.566Z,95.30
2018-08-19T09:47:13.097Z,94.80
2018-08-19T09:49:41.649Z,94.50
2018-08-19T09:52:10.264Z,94.50
2018-08-19T09:54:39.154Z,94.70
2018-08-19T09:57:09.380Z,95.00
2018-08-19T09:59:37.894Z,95.20
2018-08-19T10:02:08.756Z,95.10
2018-08-19T10:04:37.321Z,94.30
2018-08-19T10:07:14.128Z,94.30
2018-08-19T10:09:43.093Z,93.50
2018-08-19T10:12:12.865Z,93.60
2018-08-19T10:14:41.353Z,93.40
2018-08-19T10:17:10.091Z,93.90
2018-08-19T10:19:41.502Z,93.80
2018-08-19T10:22:10.314Z,93.60
2018-08-19T10:24:38.898Z,93.60
2018-08-19T10:27:08.537Z,92.90
2018-08-19T10:29:37.047Z,93.60
2018-08-19T10:32:07.266Z,93.50
2018-08-19T10:34:36.888Z,93.20
2018-08-19T10:37:06.113Z,93.00
2018-08-19T10:39:34.872Z,92.70
2018-08-19T10:42:16.832Z,93.00
2018-08-19T10:44:47.002Z,92.70
2018-08-19T10:47:15.555Z,92.70
2018-08-19T10:49:50.538Z,92.80
2018-08-19T10:52:23.310Z,92.60
2018-08-19T10:54:51.818Z,92.80
2018-08-19T10:57:21.344Z,92.60
2018-08-19T10:59:51.989Z,92.50
2018-08-19T11:02:21.426Z,92.40
2018-08-19T11:04:50.816Z,92.60
2018-08-19T11:07:19.894Z,92.10
2018-08-19T11:10:03.905Z,91.60
2018-08-19T11:12:32.559Z,92.00
2018-08-19T11:15:01.350Z,92.40
2018-08-19T11:17:30.122Z,92.00
2018-08-19T11:19:58.607Z,91.30
2018-08-19T11:22:27.094Z,92.00
2018-08-19T11:24:55.685Z,91.70
2018-08-19T11:27:24.730Z,91.90
2018-08-19T11:29:53.401Z,92.10
2018-08-19T11:32:34.197Z,92.20
2018-08-19T11:35:02.733Z,92.10
2018-08-19T11:37:32.158Z,91.90
2018-08-19T11:40:00.685Z,91.80
2018-08-19T11:42:29.817Z,92.00
2018-08-19T11:44:58.356Z,91.80
2018-08-19T11:47:26.881Z,91.80
2018-08-19T11:49:55.761Z,91.40
2018-08-19T11:52:24.860Z,91.80
2018-08-19T11:54:53.416Z,91.60
2018-08-19T11:57:22.797Z,91.50
2018-08-19T11:59:51.628Z,91.70
2018-08-19T12:02:21.437Z,91.70
2018-08-19T12:04:49.932Z,91.70
2018-08-19T12:07:18.941Z,91.90
2018-08-19T12:09:53.850Z,91.00
2018-08-19T12:12:53.512Z,91.20
2018-08-19T12:15:22.061Z,90.90
2018-08-19T12:17:50.688Z,90.50
2018-08-19T12:20:38.154Z,90.30
2018-08-19T12:23:07.966Z,90.30
2018-08-19T12:25:36.476Z,90.70
2018-08-19T12:28:05.301Z,90.50
2018-08-19T12:30:33.776Z,90.80
2018-08-19T12:33:13.889Z,91.00
2018-08-19T12:35:42.362Z,91.00
2018-08-19T12:38:10.823Z,90.40
2018-08-19T12:40:43.741Z,90.20
2018-08-19T12:43:12.221Z,89.40
2018-08-19T12:45:40.662Z,90.30
2018-08-19T12:48:09.152Z,89.00
2018-08-19T12:50:37.573Z,89.00
2018-08-19T12:53:06.664Z,90.00
2018-08-19T12:55:35.155Z,90.10
2018-08-19T12:58:07.683Z,90.00
2018-08-19T13:00:36.141Z,89.70
2018-08-19T13:03:04.673Z,90.10
2018-08-19T13:05:33.177Z,89.90
2018-08-19T13:08:01.722Z,89.50
2018-08-19T13:10:35.385Z,90.00
2018-08-19T13:13:03.897Z,89.50
2018-08-19T13:15:32.377Z,88.50
2018-08-19T13:18:00.893Z,88.10
2018-08-19T13:20:29.457Z,86.50
2018-08-19T13:23:02.329Z,87.80
2018-08-19T13:25:31.125Z,87.70
2018-08-19T13:27:59.557Z,87.70
2018-08-19T13:30:28.064Z,86.80
2018-08-19T13:32:56.530Z,86.40
2018-08-19T13:35:25.009Z,86.60
2018-08-19T13:37:53.540Z,87.00
2018-08-19T13:40:22.029Z,86.90
2018-08-19T13:42:51.148Z,86.50
2018-08-19T13:45:21.180Z,85.30
2018-08-19T13:47:52.173Z,85.50
2018-08-19T13:50:20.644Z,85.60
2018-08-19T13:52:49.133Z,85.10
2018-08-19T13:55:19.569Z,85.90
2018-08-19T13:57:48.098Z,85.70
2018-08-19T14:00:21.211Z,85.90
2018-08-19T14:02:50.174Z,85.70
2018-08-19T14:05:18.666Z,85.10
2018-08-19T14:07:47.210Z,83.80
2018-08-19T14:10:16.273Z,84.90
2018-08-19T14:12:44.819Z,84.20
2018-08-19T14:15:13.532Z,84.00
2018-08-19T14:17:42.013Z,82.90
2018-08-19T14:20:11.194Z,82.30
2018-08-19T14:22:39.648Z,82.70
2018-08-19T14:25:09.900Z,82.10
2018-08-19T14:27:38.673Z,82.30
2018-08-19T14:30:08.587Z,82.20
2018-08-19T14:32:43.324Z,82.90
2018-08-19T14:35:11.812Z,84.00
2018-08-19T14:37:40.568Z,85.80
2018-08-19T14:40:14.488Z,86.00
2018-08-19T14:42:42.772Z,85.50
2018-08-19T14:45:11.276Z,86.20
2018-08-19T14:47:39.720Z,86.40
2018-08-19T14:50:11.781Z,86.60
2018-08-19T14:52:40.243Z,87.20
2018-08-19T14:55:09.351Z,87.30
2018-08-19T14:57:37.956Z,88.10
2018-08-19T15:00:08.593Z,87.10
2018-08-19T15:02:37.361Z,88.00
2018-08-19T15:05:06.049Z,87.90
2018-08-19T15:07:34.592Z,87.50
2018-08-19T15:10:03.180Z,88.20
2018-08-19T15:12:31.583Z,88.50
2018-08-19T15:15:00.894Z,88.60
2018-08-19T15:17:29.372Z,88.70
2018-08-19T15:19:57.937Z,89.20
2018-08-19T15:22:26.292Z,89.40
2018-08-19T15:24:54.719Z,89.00
2018-08-19T15:27:23.244Z,88.90
2018-08-19T15:29:52.896Z,89.40
2018-08-19T15:32:22.545Z,89.10
2018-08-19T15:34:50.827Z,89.70
2018-08-19T15:37:19.282Z,90.10
2018-08-19T15:39:47.761Z,90.10
2018-08-19T15:42:16.743Z,90.00
2018-08-19T15:44:45.404Z,90.10
2018-08-19T15:47:13.996Z,90.30
2018-08-19T15:49:42.384Z,90.30
2018-08-19T15:52:10.816Z,90.50
2018-08-19T15:54:42.545Z,90.30
2018-08-19T15:57:11.015Z,90.30
2018-08-19T15:59:39.518Z,90.20
2018-08-19T16:02:07.982Z,90.40
2018-08-19T16:04:36.412Z,90.60
2018-08-19T16:07:04.872Z,90.60
2018-08-19T16:09:33.348Z,90.60
2018-08-19T16:12:01.806Z,90.50
2018-08-19T16:14:32.264Z,90.50
2018-08-19T16:17:02.104Z,90.80
2018-08-19T16:19:30.567Z,90.60
2018-08-19T16:21:59.880Z,90.70
2018-08-19T16:24:28.545Z,90.70
2018-08-19T16:26:57.050Z,90.80
2018-08-19T16:29:25.480Z,90.80
2018-08-19T16:31:54.172Z,90.90
2018-08-19T16:34:22.528Z,90.90
2018-08-19T16:36:50.986Z,90.90
2018-08-19T16:39:19.516Z,91.00
2018-08-19T16:41:47.984Z,90.90
2018-08-19T16:44:16.440Z,90.90
2018-08-19T16:46:44.980Z,90.90
2018-08-19T16:49:13.440Z,91.10
2018-08-19T16:51:41.970Z,91.10
2018-08-19T16:54:10.477Z,91.40
2018-08-19T16:56:38.941Z,91.30
2018-08-19T16:59:07.377Z,91.30
2018-08-19T17:01:35.906Z,91.30
2018-08-19T17:04:04.381Z,91.40
2018-08-19T17:06:32.876Z,91.60
2018-08-19T17:09:01.297Z,91.70
2018-08-19T17:11:29.781Z,91.80
2018-08-19T17:13:58.250Z,92.00
2018-08-19T17:16:26.730Z,92.20
2018-08-19T17:18:55.205Z,92.30
2018-08-19T17:21:23.690Z,92.30
2018-08-19T17:23:52.564Z,92.40
2018-08-19T17:26:22.445Z,92.60
2018-08-19T17:28:51.268Z,92.60
2018-08-19T17:31:20.171Z,92.70
2018-08-19T17:33:48.673Z,92.80
2018-08-19T17:36:25.384Z,92.90
2018-08-19T17:38:53.873Z,93.10
2018-08-19T17:41:22.285Z,93.10
2018-08-19T17:43:50.834Z,93.20
2018-08-19T17:46:20.581Z,93.30
2018-08-19T17:48:49.250Z,93.40
2018-08-19T17:51:30.686Z,93.40
2018-08-19T17:53:59.153Z,93.50
2018-08-19T17:56:27.656Z,93.60
2018-08-19T17:58:56.113Z,93.70
2018-08-19T18:01:25.289Z,93.80
2018-08-19T18:03:53.875Z,94.00
2018-08-19T18:06:22.324Z,94.10
2018-08-19T18:08:52.297Z,94.20
2018-08-19T18:11:21.133Z,94.20
2018-08-19T18:13:49.950Z,94.30
2018-08-19T18:16:18.462Z,94.40
2018-08-19T18:18:47.609Z,94.50
2018-08-19T18:21:16.096Z,94.50
2018-08-19T18:23:48.357Z,94.60
2018-08-19T18:26:16.861Z,94.70
2018-08-19T18:28:46.998Z,94.70
2018-08-19T18:31:19.523Z,94.80
2018-08-19T18:34:00.083Z,94.90
2018-08-19T18:36:30.508Z,95.10
2018-08-19T18:38:59.461Z,95.10
2018-08-19T18:41:36.476Z,95.30
2018-08-19T18:44:06.561Z,95.20
2018-08-19T18:46:35.542Z,95.40
2018-08-19T18:49:12.468Z,95.50
2018-08-19T18:51:42.742Z,95.60
2018-08-19T18:54:20.821Z,95.70
2018-08-19T18:56:49.461Z,95.90
2018-08-19T18:59:17.981Z,96.00
2018-08-19T19:01:46.542Z,96.30
2018-08-19T19:04:15.070Z,96.30
2018-08-19T19:06:43.583Z,96.50
2018-08-19T19:09:12.097Z,96.60
2018-08-19T19:11:40.623Z,96.80
2018-08-19T19:14:16.317Z,96.80
2018-08-19T19:16:53.625Z,97.00
2018-08-19T19:19:22.327Z,97.10
2018-08-19T19:21:58.956Z,97.20
2018-08-19T19:24:35.825Z,97.40
2018-08-19T19:27:04.404Z,97.30
2018-08-19T19:29:32.908Z,97.50
2018-08-19T19:32:11.389Z,97.60
2018-08-19T19:34:39.877Z,97.70
2018-08-19T19:37:08.563Z,97.80
2018-08-19T19:39:37.907Z,97.80
2018-08-19T19:42:17.042Z,97.80
2018-08-19T19:44:45.866Z,98.00
2018-08-19T19:47:14.428Z,98.10
2018-08-19T19:49:48.364Z,98.20
2018-08-19T19:52:16.872Z,98.30
2018-08-19T19:54:45.459Z,98.30
2018-08-19T19:57:14.083Z,98.40
2018-08-19T19:59:42.674Z,98.50
2018-08-19T20:02:16.492Z,98.40
2018-08-19T20:04:45.292Z,98.60
2018-08-19T20:07:14.172Z,98.70
2018-08-19T20:09:42.840Z,98.80
2018-08-19T20:12:16.930Z,98.90
2018-08-19T20:14:48.977Z,99.00
2018-08-19T20:17:18.874Z,99.00
2018-08-19T20:19:47.352Z,99.20
2018-08-19T20:22:17.971Z,99.20
2018-08-19T20:24:46.921Z,99.40
2018-08-19T20:27:15.704Z,99.50
2018-08-19T20:29:44.337Z,99.60
2018-08-19T20:32:12.845Z,99.60
2018-08-19T20:34:41.352Z,99.80
2018-08-19T20:37:10.965Z,99.80
2018-08-19T20:39:39.522Z,99.90
2018-08-19T20:42:08.142Z,99.90
2018-08-19T20:44:38.173Z,99.90
2018-08-19T20:47:07.725Z,99.90
2018-08-19T20:49:36.225Z,99.90
2018-08-19T20:52:04.846Z,99.90
2018-08-19T20:54:33.308Z,99.90
2018-08-19T20:57:01.870Z,99.90
2018-08-19T20:59:37.749Z,99.90
2018-08-19T21:02:07.651Z,99.90
2018-08-19T21:04:36.165Z,99.90
2018-08-19T21:07:05.524Z,99.90
2018-08-19T21:09:35.461Z,99.90
2018-08-19T21:12:04.093Z,99.90
2018-08-19T21:14:32.584Z,99.90
2018-08-19T21:17:03.021Z,99.90
2018-08-19T21:19:31.507Z,99.90
2018-08-19T21:21:59.973Z,99.90
2018-08-19T21:24:28.435Z,99.90
2018-08-19T21:27:01.952Z,99.90
2018-08-19T21:29:31.271Z,99.90
2018-08-19T21:31:59.740Z,99.90
2018-08-19T21:34:28.541Z,99.90
2018-08-19T21:36:57.416Z,99.90
2018-08-19T21:39:25.872Z,99.90
2018-08-19T21:41:56.048Z,99.90
2018-08-19T21:44:24.589Z,99.90
2018-08-19T21:46:53.111Z,99.90
2018-08-19T21:49:21.583Z,99.90
2018-08-19T21:51:50.124Z,99.90
2018-08-19T21:54:18.620Z,99.90
2018-08-19T21:56:47.092Z,99.90
2018-08-19T21:59:20.852Z,99.90
2018-08-19T22:01:56.459Z,99.90
2018-08-19T22:04:25.079Z,99.90
2018-08-19T22:06:53.574Z,99.90
2018-08-19T22:09:34.304Z,99.90
2018-08-19T22:12:03.396Z,99.90
2018-08-19T22:14:32.599Z,99.90
2018-08-19T22:17:08.225Z,99.90
2018-08-19T22:19:37.131Z,99.90
2018-08-19T22:22:05.729Z,99.90
2018-08-19T22:24:34.355Z,99.90
2018-08-19T22:27:08.251Z,99.90
2018-08-19T22:29:36.789Z,99.90
2018-08-19T22:32:05.968Z,99.90
2018-08-19T22:34:34.456Z,99.90
2018-08-19T22:37:03.071Z,99.90
2018-08-19T22:39:31.658Z,99.90
2018-08-19T22:42:00.550Z,99.90
2018-08-19T22:44:35.526Z,99.90
2018-08-19T22:47:04.025Z,99.90
2018-08-19T22:49:32.554Z,99.90
2018-08-19T22:52:22.081Z,99.90
2018-08-19T22:54:54.052Z,99.90
2018-08-19T22:57:22.561Z,99.90
2018-08-19T22:59:51.128Z,99.90
2018-08-19T23:02:19.764Z,99.90
2018-08-19T23:04:48.311Z,99.90
2018-08-19T23:07:16.838Z,99.90
2018-08-19T23:09:45.344Z,99.90
2018-08-19T23:12:13.906Z,99.90
2018-08-19T23:14:53.779Z,99.90
2018-08-19T23:17:22.269Z,99.90
2018-08-19T23:19:51.622Z,99.90
2018-08-19T23:22:20.179Z,99.90
2018-08-19T23:24:48.680Z,99.90
2018-08-19T23:27:17.231Z,99.90
2018-08-19T23:29:45.717Z,99.90
2018-08-19T23:32:14.224Z,99.90
2018-08-19T23:34:42.696Z,99.90
2018-08-19T23:37:11.205Z,99.90
2018-08-19T23:39:39.676Z,99.90
2018-08-19T23:42:08.268Z,99.90
2018-08-19T23:44:36.775Z,99.90
2018-08-19T23:47:05.345Z,99.90
2018-08-19T23:49:33.852Z,99.90
2018-08-19T23:52:02.400Z,99.90
2018-08-19T23:54:30.899Z,99.90
2018-08-19T23:56:59.870Z,99.90
2018-08-19T23:59:33.573Z,99.90
